sensor_id;sensor_type;location;lat;lon;timestamp;pressure;altitude;pressure_sealevel;temperature;humidity
26376;BME280;30544;42.196;24.336;2022-11-15T00:02:26;99897.78;;;5.70;94.97
26376;BME280;30544;42.196;24.336;2022-11-15T00:04:53;99898.47;;;5.72;94.83
26376;BME280;30544;42.196;24.336;2022-11-15T00:07:21;99888.88;;;5.68;94.73
26376;BME280;30544;42.196;24.336;2022-11-15T00:09:48;99888.25;;;5.66;95.15
26376;BME280;30544;42.196;24.336;2022-11-15T00:12:14;99894.16;;;5.63;95.11
26376;BME280;30544;42.196;24.336;2022-11-15T00:14:41;99881.22;;;5.64;95.06
26376;BME280;30544;42.196;24.336;2022-11-15T00:17:08;99873.78;;;5.58;94.82
26376;BME280;30544;42.196;24.336;2022-11-15T00:19:34;99880.16;;;5.58;95.12
26376;BME280;30544;42.196;24.336;2022-11-15T00:22:01;99872.97;;;5.64;94.83
26376;BME280;30544;42.196;24.336;2022-11-15T00:24:29;99869.91;;;5.52;94.84
26376;BME280;30544;42.196;24.336;2022-11-15T00:26:56;99871.06;;;5.64;95.29
26376;BME280;30544;42.196;24.336;2022-11-15T00:29:23;99866.78;;;5.55;95.11
26376;BME280;30544;42.196;24.336;2022-11-15T00:31:50;99879.22;;;5.51;95.03
26376;BME280;30544;42.196;24.336;2022-11-15T00:34:16;99880.72;;;5.54;94.69
26376;BME280;30544;42.196;24.336;2022-11-15T00:36:43;99878.16;;;5.52;94.93
26376;BME280;30544;42.196;24.336;2022-11-15T00:39:10;99871.06;;;5.36;94.72
26376;BME280;30544;42.196;24.336;2022-11-15T00:41:38;99872.75;;;5.37;94.55
26376;BME280;30544;42.196;24.336;2022-11-15T00:44:05;99870.53;;;5.48;94.77
26376;BME280;30544;42.196;24.336;2022-11-15T00:46:31;99864.69;;;5.57;94.99
26376;BME280;30544;42.196;24.336;2022-11-15T00:48:58;99867.44;;;5.57;94.51
26376;BME280;30544;42.196;24.336;2022-11-15T00:51:25;99866.59;;;5.57;94.88
26376;BME280;30544;42.196;24.336;2022-11-15T00:53:52;99862.31;;;5.54;94.51
26376;BME280;30544;42.196;24.336;2022-11-15T00:56:18;99867.44;;;5.57;94.81
26376;BME280;30544;42.196;24.336;2022-11-15T00:58:46;99861.53;;;5.60;94.53
26376;BME280;30544;42.196;24.336;2022-11-15T01:01:14;99855.63;;;5.63;94.64
26376;BME280;30544;42.196;24.336;2022-11-15T01:03:41;99853.41;;;5.52;95.21
26376;BME280;30544;42.196;24.336;2022-11-15T01:06:09;99852.97;;;5.49;95.67
26376;BME280;30544;42.196;24.336;2022-11-15T01:08:37;99845.72;;;5.41;96.06
26376;BME280;30544;42.196;24.336;2022-11-15T01:11:06;99848.72;;;5.46;95.91
26376;BME280;30544;42.196;24.336;2022-11-15T01:13:36;99849.59;;;5.53;95.52
26376;BME280;30544;42.196;24.336;2022-11-15T01:16:09;99847.47;;;5.49;95.91
26376;BME280;30544;42.196;24.336;2022-11-15T01:18:36;99839.66;;;5.52;95.74
26376;BME280;30544;42.196;24.336;2022-11-15T01:21:07;99839.66;;;5.52;96.13
26376;BME280;30544;42.196;24.336;2022-11-15T01:23:34;99838.41;;;5.55;95.50
26376;BME280;30544;42.196;24.336;2022-11-15T01:26:03;99841.63;;;5.58;95.31
26376;BME280;30544;42.196;24.336;2022-11-15T01:28:30;99842.91;;;5.62;95.52
26376;BME280;30544;42.196;24.336;2022-11-15T01:30:58;99831.78;;;5.49;95.19
26376;BME280;30544;42.196;24.336;2022-11-15T01:33:27;99839.59;;;5.46;95.73
26376;BME280;30544;42.196;24.336;2022-11-15T01:35:54;99838.88;;;5.58;94.87
26376;BME280;30544;42.196;24.336;2022-11-15T01:38:22;99835.69;;;5.61;95.12
26376;BME280;30544;42.196;24.336;2022-11-15T01:40:49;99834.78;;;5.54;95.17
26376;BME280;30544;42.196;24.336;2022-11-15T01:43:20;99843.09;;;5.61;95.04
26376;BME280;30544;42.196;24.336;2022-11-15T01:45:50;99835.19;;;5.51;95.00
26376;BME280;30544;42.196;24.336;2022-11-15T01:48:19;99832.75;;;5.63;94.70
26376;BME280;30544;42.196;24.336;2022-11-15T01:50:48;99828.75;;;5.65;94.32
26376;BME280;30544;42.196;24.336;2022-11-15T01:53:17;99831.09;;;5.68;94.28
26376;BME280;30544;42.196;24.336;2022-11-15T01:55:45;99836.22;;;5.71;94.13
26376;BME280;30544;42.196;24.336;2022-11-15T01:58:12;99832.13;;;5.67;93.76
26376;BME280;30544;42.196;24.336;2022-11-15T02:00:39;99832.56;;;5.71;94.20
26376;BME280;30544;42.196;24.336;2022-11-15T02:03:06;99832.63;;;5.78;94.07
26376;BME280;30544;42.196;24.336;2022-11-15T02:05:33;99840.47;;;5.74;94.26
26376;BME280;30544;42.196;24.336;2022-11-15T02:08:03;99835.09;;;5.94;94.45
26376;BME280;30544;42.196;24.336;2022-11-15T02:10:30;99834.25;;;5.93;94.14
26376;BME280;30544;42.196;24.336;2022-11-15T02:12:59;99825.38;;;5.98;94.71
26376;BME280;30544;42.196;24.336;2022-11-15T02:15:34;99828.34;;;6.03;94.17
26376;BME280;30544;42.196;24.336;2022-11-15T02:18:16;99827.38;;;6.17;94.06
26376;BME280;30544;42.196;24.336;2022-11-15T02:21:06;99830.41;;;6.29;94.17
26376;BME280;30544;42.196;24.336;2022-11-15T02:29:36;99817.53;;;6.49;94.45
26376;BME280;30544;42.196;24.336;2022-11-15T02:32:13;99814.81;;;6.56;94.77
26376;BME280;30544;42.196;24.336;2022-11-15T02:34:50;99824.16;;;6.61;94.72
26376;BME280;30544;42.196;24.336;2022-11-15T02:37:27;99818.47;;;6.76;94.38
26376;BME280;30544;42.196;24.336;2022-11-15T02:40:00;99822.09;;;6.83;93.73
26376;BME280;30544;42.196;24.336;2022-11-15T02:42:33;99813.41;;;6.93;93.72
26376;BME280;30544;42.196;24.336;2022-11-15T02:45:23;99817.88;;;7.01;92.81
26376;BME280;30544;42.196;24.336;2022-11-15T02:47:54;99819.81;;;7.07;93.10
26376;BME280;30544;42.196;24.336;2022-11-15T02:50:27;99822.34;;;7.21;92.81
26376;BME280;30544;42.196;24.336;2022-11-15T02:52:55;99818.09;;;7.32;92.10
26376;BME280;30544;42.196;24.336;2022-11-15T02:55:27;99822.78;;;7.25;92.12
26376;BME280;30544;42.196;24.336;2022-11-15T02:58:05;99814.69;;;7.37;92.05
26376;BME280;30544;42.196;24.336;2022-11-15T03:00:43;99814.06;;;7.35;91.87
26376;BME280;30544;42.196;24.336;2022-11-15T03:03:32;99815.56;;;7.44;91.60
26376;BME280;30544;42.196;24.336;2022-11-15T03:06:09;99814.06;;;7.48;91.18
26376;BME280;30544;42.196;24.336;2022-11-15T03:08:51;99810.25;;;7.49;90.97
26376;BME280;30544;42.196;24.336;2022-11-15T03:11:21;99804.06;;;7.53;91.07
26376;BME280;30544;42.196;24.336;2022-11-15T03:13:53;99813.00;;;7.62;91.13
26376;BME280;30544;42.196;24.336;2022-11-15T03:16:27;99817.47;;;7.50;90.82
26376;BME280;30544;42.196;24.336;2022-11-15T03:18:59;99820.22;;;7.57;90.89
26376;BME280;30544;42.196;24.336;2022-11-15T03:21:30;99808.53;;;7.54;91.79
26376;BME280;30544;42.196;24.336;2022-11-15T03:24:02;99818.06;;;7.72;91.39
26376;BME280;30544;42.196;24.336;2022-11-15T03:26:32;99806.84;;;7.73;90.82
26376;BME280;30544;42.196;24.336;2022-11-15T03:29:03;99817.44;;;7.76;90.57
26376;BME280;30544;42.196;24.336;2022-11-15T03:31:34;99812.31;;;7.80;90.02
26376;BME280;30544;42.196;24.336;2022-11-15T03:34:22;99810.00;;;7.77;90.31
26376;BME280;30544;42.196;24.336;2022-11-15T03:36:52;99805.53;;;7.76;89.74
26376;BME280;30544;42.196;24.336;2022-11-15T03:39:19;99805.09;;;7.79;89.98
26376;BME280;30544;42.196;24.336;2022-11-15T03:41:49;99800.84;;;7.83;89.89
26376;BME280;30544;42.196;24.336;2022-11-15T03:44:24;99788.28;;;7.87;89.35
26376;BME280;30544;42.196;24.336;2022-11-15T03:47:00;99792.13;;;7.86;89.00
26376;BME280;30544;42.196;24.336;2022-11-15T03:49:32;99788.72;;;7.91;88.59
26376;BME280;30544;42.196;24.336;2022-11-15T03:52:00;99777.69;;;7.84;89.50
26376;BME280;30544;42.196;24.336;2022-11-15T03:54:29;99778.09;;;7.94;89.16
26376;BME280;30544;42.196;24.336;2022-11-15T03:56:56;99777.66;;;7.97;88.71
26376;BME280;30544;42.196;24.336;2022-11-15T03:59:23;99776.41;;;7.93;89.13
26376;BME280;30544;42.196;24.336;2022-11-15T04:01:50;99777.47;;;7.85;88.02
26376;BME280;30544;42.196;24.336;2022-11-15T04:04:16;99771.72;;;7.87;87.53
26376;BME280;30544;42.196;24.336;2022-11-15T04:06:44;99773.00;;;7.91;87.40
26376;BME280;30544;42.196;24.336;2022-11-15T04:09:11;99776.97;;;8.08;87.69
26376;BME280;30544;42.196;24.336;2022-11-15T04:11:38;99772.72;;;8.12;86.88
26376;BME280;30544;42.196;24.336;2022-11-15T04:14:05;99769.94;;;8.06;87.26
26376;BME280;30544;42.196;24.336;2022-11-15T04:16:31;99764.03;;;8.02;87.51
26376;BME280;30544;42.196;24.336;2022-11-15T04:18:58;99765.94;;;8.02;86.84
26376;BME280;30544;42.196;24.336;2022-11-15T04:21:42;99771.69;;;8.07;86.27
26376;BME280;30544;42.196;24.336;2022-11-15T04:24:24;99765.25;;;8.13;86.38
26376;BME280;30544;42.196;24.336;2022-11-15T04:26:50;99767.84;;;8.01;87.18
26376;BME280;30544;42.196;24.336;2022-11-15T04:29:17;99768.69;;;8.08;86.24
26376;BME280;30544;42.196;24.336;2022-11-15T04:32:02;99760.25;;;7.90;87.06
26376;BME280;30544;42.196;24.336;2022-11-15T04:34:29;99763.84;;;7.97;86.38
26376;BME280;30544;42.196;24.336;2022-11-15T04:36:56;99755.94;;;8.07;86.29
26376;BME280;30544;42.196;24.336;2022-11-15T04:39:39;99754.25;;;8.06;85.65
26376;BME280;30544;42.196;24.336;2022-11-15T04:42:06;99756.31;;;8.18;86.03
26376;BME280;30544;42.196;24.336;2022-11-15T04:44:33;99755.06;;;8.13;85.51
26376;BME280;30544;42.196;24.336;2022-11-15T04:47:00;99746.59;;;8.08;85.58
26376;BME280;30544;42.196;24.336;2022-11-15T04:49:27;99746.16;;;8.05;85.23
26376;BME280;30544;42.196;24.336;2022-11-15T04:51:54;99744.03;;;8.07;84.89
26376;BME280;30544;42.196;24.336;2022-11-15T04:54:20;99756.53;;;8.16;84.45
26376;BME280;30544;42.196;24.336;2022-11-15T04:56:49;99741.91;;;8.02;85.01
26376;BME280;30544;42.196;24.336;2022-11-15T04:59:16;99742.31;;;8.06;83.59
26376;BME280;30544;42.196;24.336;2022-11-15T05:01:42;99740.25;;;7.88;83.41
26376;BME280;30544;42.196;24.336;2022-11-15T05:04:09;99745.38;;;7.84;83.69
26376;BME280;30544;42.196;24.336;2022-11-15T05:06:48;99751.09;;;7.96;83.57
26376;BME280;30544;42.196;24.336;2022-11-15T05:09:16;99756.00;;;7.94;83.37
26376;BME280;30544;42.196;24.336;2022-11-15T05:11:42;99757.25;;;7.98;83.26
26376;BME280;30544;42.196;24.336;2022-11-15T05:14:11;99756.34;;;8.04;83.17
26376;BME280;30544;42.196;24.336;2022-11-15T05:16:38;99754.06;;;7.95;82.79
26376;BME280;30544;42.196;24.336;2022-11-15T05:19:05;99750.22;;;8.02;83.05
26376;BME280;30544;42.196;24.336;2022-11-15T05:21:32;99759.34;;;8.09;82.09
26376;BME280;30544;42.196;24.336;2022-11-15T05:23:59;99753.59;;;8.04;82.45
26376;BME280;30544;42.196;24.336;2022-11-15T05:26:26;99758.06;;;8.05;82.39
26376;BME280;30544;42.196;24.336;2022-11-15T05:28:53;99750.84;;;8.04;82.35
26376;BME280;30544;42.196;24.336;2022-11-15T05:31:22;99752.34;;;8.07;82.46
26376;BME280;30544;42.196;24.336;2022-11-15T05:33:50;99758.97;;;7.93;82.81
26376;BME280;30544;42.196;24.336;2022-11-15T05:36:21;99757.25;;;7.98;82.64
26376;BME280;30544;42.196;24.336;2022-11-15T05:38:53;99757.66;;;8.02;82.25
26376;BME280;30544;42.196;24.336;2022-11-15T05:41:32;99757.69;;;7.95;83.43
26376;BME280;30544;42.196;24.336;2022-11-15T05:44:00;99756.34;;;8.04;83.82
26376;BME280;30544;42.196;24.336;2022-11-15T05:46:29;99763.13;;;8.15;83.66
26376;BME280;30544;42.196;24.336;2022-11-15T05:48:56;99760.97;;;8.24;83.97
26376;BME280;30544;42.196;24.336;2022-11-15T05:51:24;99767.34;;;8.24;84.62
26376;BME280;30544;42.196;24.336;2022-11-15T05:53:51;99770.06;;;8.31;84.70
26376;BME280;30544;42.196;24.336;2022-11-15T05:56:19;99762.69;;;8.25;86.68
26376;BME280;30544;42.196;24.336;2022-11-15T05:58:46;99768.84;;;8.20;87.67
26376;BME280;30544;42.196;24.336;2022-11-15T06:01:13;99757.94;;;8.32;87.02
26376;BME280;30544;42.196;24.336;2022-11-15T06:03:41;99760.00;;;8.50;86.91
26376;BME280;30544;42.196;24.336;2022-11-15T06:06:08;99769.84;;;8.39;86.10
26376;BME280;30544;42.196;24.336;2022-11-15T06:08:34;99772.81;;;8.44;85.71
26376;BME280;30544;42.196;24.336;2022-11-15T06:11:05;99759.16;;;8.49;85.78
26376;BME280;30544;42.196;24.336;2022-11-15T06:13:32;99764.16;;;8.65;84.74
26376;BME280;30544;42.196;24.336;2022-11-15T06:15:59;99759.31;;;8.92;83.59
26376;BME280;30544;42.196;24.336;2022-11-15T06:18:26;99762.09;;;8.92;83.61
26376;BME280;30544;42.196;24.336;2022-11-15T06:20:58;99760.28;;;9.29;82.91
26376;BME280;30544;42.196;24.336;2022-11-15T06:23:24;99757.63;;;9.41;81.80
26376;BME280;30544;42.196;24.336;2022-11-15T06:25:51;99753.09;;;9.22;81.12
26376;BME280;30544;42.196;24.336;2022-11-15T06:28:18;99759.72;;;9.46;80.26
26376;BME280;30544;42.196;24.336;2022-11-15T06:30:46;99762.41;;;9.52;79.16
26376;BME280;30544;42.196;24.336;2022-11-15T06:33:13;99774.69;;;9.38;76.89
26376;BME280;30544;42.196;24.336;2022-11-15T06:35:39;99756.03;;;9.52;76.68
26376;BME280;30544;42.196;24.336;2022-11-15T06:38:09;99767.72;;;9.54;75.54
26376;BME280;30544;42.196;24.336;2022-11-15T06:40:37;99763.88;;;9.05;76.15
26376;BME280;30544;42.196;24.336;2022-11-15T06:43:05;99761.75;;;9.07;76.50
26376;BME280;30544;42.196;24.336;2022-11-15T06:45:32;99761.75;;;9.32;75.62
26376;BME280;30544;42.196;24.336;2022-11-15T06:47:59;99767.13;;;9.70;75.49
26376;BME280;30544;42.196;24.336;2022-11-15T06:50:25;99761.44;;;9.65;75.23
26376;BME280;30544;42.196;24.336;2022-11-15T06:52:52;99770.06;;;9.75;75.29
26376;BME280;30544;42.196;24.336;2022-11-15T06:55:21;99762.53;;;9.82;75.02
26376;BME280;30544;42.196;24.336;2022-11-15T06:57:48;99756.22;;;9.93;75.23
26376;BME280;30544;42.196;24.336;2022-11-15T07:00:17;99756.69;;;10.09;73.70
26376;BME280;30544;42.196;24.336;2022-11-15T07:02:44;99760.94;;;9.93;73.89
26376;BME280;30544;42.196;24.336;2022-11-15T07:05:15;99756.53;;;10.04;72.53
26376;BME280;30544;42.196;24.336;2022-11-15T07:07:42;99755.47;;;10.23;72.38
26376;BME280;30544;42.196;24.336;2022-11-15T07:10:09;99758.75;;;10.13;73.01
26376;BME280;30544;42.196;24.336;2022-11-15T07:12:37;99750.59;;;10.18;72.06
26376;BME280;30544;42.196;24.336;2022-11-15T07:15:05;99747.41;;;10.51;71.93
26376;BME280;30544;42.196;24.336;2022-11-15T07:17:35;99751.16;;;10.87;71.08
26376;BME280;30544;42.196;24.336;2022-11-15T07:20:03;99744.63;;;10.81;71.16
26376;BME280;30544;42.196;24.336;2022-11-15T07:22:30;99749.81;;;10.78;70.08
26376;BME280;30544;42.196;24.336;2022-11-15T07:24:57;99745.06;;;10.67;70.63
26376;BME280;30544;42.196;24.336;2022-11-15T07:27:24;99744.59;;;10.70;70.60
26376;BME280;30544;42.196;24.336;2022-11-15T07:29:52;99748.72;;;10.79;70.17
26376;BME280;30544;42.196;24.336;2022-11-15T07:32:18;99747.78;;;10.85;70.31
26376;BME280;30544;42.196;24.336;2022-11-15T07:34:45;99750.50;;;10.73;70.46
26376;BME280;30544;42.196;24.336;2022-11-15T07:37:12;99745.69;;;11.10;68.76
26376;BME280;30544;42.196;24.336;2022-11-15T07:39:39;99747.13;;;11.13;68.69
26376;BME280;30544;42.196;24.336;2022-11-15T07:42:06;99742.66;;;11.24;68.09
26376;BME280;30544;42.196;24.336;2022-11-15T07:44:51;99748.06;;;11.07;68.58
26376;BME280;30544;42.196;24.336;2022-11-15T07:47:18;99739.16;;;11.17;68.95
26376;BME280;30544;42.196;24.336;2022-11-15T07:49:45;99747.50;;;11.52;68.51
26376;BME280;30544;42.196;24.336;2022-11-15T07:52:15;99743.88;;;11.74;67.59
26376;BME280;30544;42.196;24.336;2022-11-15T07:54:41;99748.97;;;11.78;66.91
26376;BME280;30544;42.196;24.336;2022-11-15T07:57:08;99739.66;;;11.49;68.73
26376;BME280;30544;42.196;24.336;2022-11-15T07:59:35;99744.97;;;11.73;68.12
26376;BME280;30544;42.196;24.336;2022-11-15T08:02:03;99737.75;;;11.96;67.65
26376;BME280;30544;42.196;24.336;2022-11-15T08:04:30;99746.91;;;11.73;67.77
26376;BME280;30544;42.196;24.336;2022-11-15T08:06:57;99741.81;;;12.05;67.01
26376;BME280;30544;42.196;24.336;2022-11-15T08:09:24;99730.25;;;11.85;67.76
26376;BME280;30544;42.196;24.336;2022-11-15T08:11:50;99736.09;;;12.23;66.90
26376;BME280;30544;42.196;24.336;2022-11-15T08:14:17;99735.13;;;12.58;66.38
26376;BME280;30544;42.196;24.336;2022-11-15T08:16:44;99731.19;;;12.71;66.13
26376;BME280;30544;42.196;24.336;2022-11-15T08:19:13;99723.75;;;13.05;65.60
26376;BME280;30544;42.196;24.336;2022-11-15T08:21:40;99731.16;;;12.99;65.76
26376;BME280;30544;42.196;24.336;2022-11-15T08:24:09;99723.97;;;12.86;65.70
26376;BME280;30544;42.196;24.336;2022-11-15T08:26:36;99722.22;;;12.97;65.33
26376;BME280;30544;42.196;24.336;2022-11-15T08:29:04;99733.03;;;12.65;65.96
26376;BME280;30544;42.196;24.336;2022-11-15T08:31:31;99725.06;;;12.85;65.33
26376;BME280;30544;42.196;24.336;2022-11-15T08:33:57;99722.97;;;13.09;64.74
26376;BME280;30544;42.196;24.336;2022-11-15T08:36:25;99729.53;;;13.32;64.61
26376;BME280;30544;42.196;24.336;2022-11-15T08:38:52;99726.63;;;13.43;64.47
26376;BME280;30544;42.196;24.336;2022-11-15T08:41:24;99714.00;;;13.36;64.56
26376;BME280;30544;42.196;24.336;2022-11-15T08:43:52;99722.25;;;13.47;64.41
26376;BME280;30544;42.196;24.336;2022-11-15T08:46:19;99724.94;;;13.42;64.53
26376;BME280;30544;42.196;24.336;2022-11-15T08:48:48;99710.94;;;13.37;63.69
26376;BME280;30544;42.196;24.336;2022-11-15T08:51:15;99709.53;;;13.35;63.48
26376;BME280;30544;42.196;24.336;2022-11-15T08:53:43;99700.28;;;13.68;63.28
26376;BME280;30544;42.196;24.336;2022-11-15T08:56:13;99703.00;;;13.63;63.69
26376;BME280;30544;42.196;24.336;2022-11-15T08:58:40;99702.63;;;13.59;64.32
26376;BME280;30544;42.196;24.336;2022-11-15T09:01:14;99693.81;;;13.84;63.02
26376;BME280;30544;42.196;24.336;2022-11-15T09:03:41;99696.50;;;13.96;62.76
26376;BME280;30544;42.196;24.336;2022-11-15T09:06:08;99682.34;;;14.02;62.44
26376;BME280;30544;42.196;24.336;2022-11-15T09:08:37;99681.09;;;13.93;63.15
26376;BME280;30544;42.196;24.336;2022-11-15T09:11:07;99667.31;;;13.81;63.12
26376;BME280;30544;42.196;24.336;2022-11-15T09:13:34;99669.69;;;13.73;62.12
26376;BME280;30544;42.196;24.336;2022-11-15T09:16:03;99666.81;;;13.68;62.03
26376;BME280;30544;42.196;24.336;2022-11-15T09:18:30;99655.41;;;13.91;62.02
26376;BME280;30544;42.196;24.336;2022-11-15T09:20:57;99648.75;;;13.92;61.28
26376;BME280;30544;42.196;24.336;2022-11-15T09:23:25;99645.38;;;13.68;62.46
26376;BME280;30544;42.196;24.336;2022-11-15T09:25:58;99645.22;;;14.24;61.34
26376;BME280;30544;42.196;24.336;2022-11-15T09:28:26;99642.75;;;14.27;61.98
26376;BME280;30544;42.196;24.336;2022-11-15T09:30:56;99646.63;;;13.99;61.41
26376;BME280;30544;42.196;24.336;2022-11-15T09:33:23;99652.19;;;13.99;61.45
26376;BME280;30544;42.196;24.336;2022-11-15T09:35:49;99639.13;;;14.27;60.46
26376;BME280;30544;42.196;24.336;2022-11-15T09:38:16;99632.28;;;14.12;60.65
26376;BME280;30544;42.196;24.336;2022-11-15T09:40:43;99635.56;;;14.09;61.29
26376;BME280;30544;42.196;24.336;2022-11-15T09:43:28;99634.69;;;13.82;61.88
26376;BME280;30544;42.196;24.336;2022-11-15T09:46:05;99633.44;;;14.17;61.49
26376;BME280;30544;42.196;24.336;2022-11-15T09:48:51;99623.38;;;14.15;61.26
26376;BME280;30544;42.196;24.336;2022-11-15T09:51:29;99619.75;;;14.42;61.05
26376;BME280;30544;42.196;24.336;2022-11-15T09:54:04;99617.56;;;14.71;60.74
26376;BME280;30544;42.196;24.336;2022-11-15T09:56:34;99609.16;;;14.98;60.52
26376;BME280;30544;42.196;24.336;2022-11-15T09:59:13;99607.41;;;14.60;61.05
26376;BME280;30544;42.196;24.336;2022-11-15T10:01:52;99604.59;;;14.60;60.95
26376;BME280;30544;42.196;24.336;2022-11-15T10:04:20;99598.78;;;14.61;60.47
26376;BME280;30544;42.196;24.336;2022-11-15T10:06:55;99603.50;;;14.34;60.86
26376;BME280;30544;42.196;24.336;2022-11-15T10:09:27;99595.84;;;14.46;61.74
26376;BME280;30544;42.196;24.336;2022-11-15T10:11:56;99590.88;;;14.85;60.46
26376;BME280;30544;42.196;24.336;2022-11-15T10:14:26;99584.00;;;14.98;60.10
26376;BME280;30544;42.196;24.336;2022-11-15T10:17:14;99586.75;;;14.93;59.90
26376;BME280;30544;42.196;24.336;2022-11-15T10:19:53;99584.00;;;14.98;59.80
26376;BME280;30544;42.196;24.336;2022-11-15T10:22:27;99578.91;;;14.90;59.65
26376;BME280;30544;42.196;24.336;2022-11-15T10:25:17;99573.25;;;15.17;59.37
26376;BME280;30544;42.196;24.336;2022-11-15T10:27:50;99564.28;;;15.15;59.05
26376;BME280;30544;42.196;24.336;2022-11-15T10:30:20;99561.16;;;15.06;59.19
26376;BME280;30544;42.196;24.336;2022-11-15T10:32:48;99548.28;;;15.05;59.32
26376;BME280;30544;42.196;24.336;2022-11-15T10:35:22;99554.22;;;15.61;58.14
26376;BME280;30544;42.196;24.336;2022-11-15T10:37:49;99546.50;;;14.89;59.21
26376;BME280;30544;42.196;24.336;2022-11-15T10:40:18;99538.50;;;15.02;59.83
26376;BME280;30544;42.196;24.336;2022-11-15T10:42:46;99537.44;;;14.71;61.11
26376;BME280;30544;42.196;24.336;2022-11-15T10:45:26;99528.34;;;15.28;59.97
26376;BME280;30544;42.196;24.336;2022-11-15T10:48:21;99529.03;;;15.03;60.21
26376;BME280;30544;42.196;24.336;2022-11-15T10:50:50;99527.22;;;15.29;59.78
26376;BME280;30544;42.196;24.336;2022-11-15T10:53:22;99523.88;;;15.32;58.18
26376;BME280;30544;42.196;24.336;2022-11-15T10:55:51;99513.09;;;15.04;58.35
26376;BME280;30544;42.196;24.336;2022-11-15T10:58:33;99520.31;;;14.95;58.52
26376;BME280;30544;42.196;24.336;2022-11-15T11:01:14;99508.16;;;15.21;58.71
26376;BME280;30544;42.196;24.336;2022-11-15T11:03:43;99506.00;;;15.33;58.06
26376;BME280;30544;42.196;24.336;2022-11-15T11:06:12;99506.34;;;14.95;59.14
26376;BME280;30544;42.196;24.336;2022-11-15T11:08:39;99503.22;;;15.39;58.50
26376;BME280;30544;42.196;24.336;2022-11-15T11:11:07;99505.56;;;15.04;58.74
26376;BME280;30544;42.196;24.336;2022-11-15T11:13:35;99496.34;;;15.09;59.19
26376;BME280;30544;42.196;24.336;2022-11-15T11:16:33;99498.28;;;14.98;58.68
26376;BME280;30544;42.196;24.336;2022-11-15T11:19:13;99491.53;;;14.94;58.86
26376;BME280;30544;42.196;24.336;2022-11-15T11:21:49;99484.72;;;15.27;58.73
26376;BME280;30544;42.196;24.336;2022-11-15T11:24:22;99481.84;;;14.65;60.31
26376;BME280;30544;42.196;24.336;2022-11-15T11:26:57;99474.09;;;14.77;59.94
26376;BME280;30544;42.196;24.336;2022-11-15T11:29:36;99469.19;;;15.47;59.25
26376;BME280;30544;42.196;24.336;2022-11-15T11:32:28;99465.06;;;15.07;58.56
26376;BME280;30544;42.196;24.336;2022-11-15T11:35:03;99461.16;;;15.08;59.23
26376;BME280;30544;42.196;24.336;2022-11-15T11:37:36;99452.69;;;14.88;59.64
26376;BME280;30544;42.196;24.336;2022-11-15T11:40:19;99452.66;;;14.83;59.77
26376;BME280;30544;42.196;24.336;2022-11-15T11:42:53;99447.06;;;14.83;59.99
26376;BME280;30544;42.196;24.336;2022-11-15T11:45:47;99442.06;;;14.90;59.21
26376;BME280;30544;42.196;24.336;2022-11-15T11:48:30;99443.84;;;15.06;58.62
26376;BME280;30544;42.196;24.336;2022-11-15T11:51:10;99440.03;;;14.75;59.76
26376;BME280;30544;42.196;24.336;2022-11-15T11:53:42;99436.47;;;14.85;59.94
26376;BME280;30544;42.196;24.336;2022-11-15T11:56:19;99428.69;;;14.92;59.21
26376;BME280;30544;42.196;24.336;2022-11-15T11:58:50;99428.25;;;15.15;58.52
26376;BME280;30544;42.196;24.336;2022-11-15T12:01:23;99422.88;;;14.98;59.21
26376;BME280;30544;42.196;24.336;2022-11-15T12:03:55;99417.00;;;15.00;59.33
26376;BME280;30544;42.196;24.336;2022-11-15T12:06:31;99409.69;;;14.94;59.56
26376;BME280;30544;42.196;24.336;2022-11-15T12:09:02;99407.53;;;15.11;58.40
26376;BME280;30544;42.196;24.336;2022-11-15T12:11:37;99392.78;;;15.16;58.52
26376;BME280;30544;42.196;24.336;2022-11-15T12:14:18;99391.94;;;15.15;59.71
26376;BME280;30544;42.196;24.336;2022-11-15T12:16:48;99390.75;;;15.01;60.63
26376;BME280;30544;42.196;24.336;2022-11-15T12:19:16;99391.16;;;15.35;59.99
26376;BME280;30544;42.196;24.336;2022-11-15T12:21:46;99381.97;;;15.50;60.07
26376;BME280;30544;42.196;24.336;2022-11-15T12:24:17;99386.56;;;14.98;61.00
26376;BME280;30544;42.196;24.336;2022-11-15T12:26:52;99376.16;;;14.41;62.58
26376;BME280;30544;42.196;24.336;2022-11-15T12:29:25;99380.16;;;15.08;61.56
26376;BME280;30544;42.196;24.336;2022-11-15T12:31:55;99385.75;;;14.56;62.95
26376;BME280;30544;42.196;24.336;2022-11-15T12:34:43;99374.97;;;14.69;63.13
26376;BME280;30544;42.196;24.336;2022-11-15T12:37:34;99381.19;;;14.82;62.58
26376;BME280;30544;42.196;24.336;2022-11-15T12:40:19;99369.97;;;14.77;61.88
26376;BME280;30544;42.196;24.336;2022-11-15T12:45:52;99366.25;;;15.18;61.34
26376;BME280;30544;42.196;24.336;2022-11-15T12:54:54;99361.78;;;15.17;61.18
26376;BME280;30544;42.196;24.336;2022-11-15T12:57:39;99353.59;;;14.95;61.80
26376;BME280;30544;42.196;24.336;2022-11-15T13:03:22;99346.19;;;14.64;62.84
26376;BME280;30544;42.196;24.336;2022-11-15T13:06:03;99350.69;;;14.75;63.78
26376;BME280;30544;42.196;24.336;2022-11-15T13:08:48;99348.25;;;14.89;62.67
26376;BME280;30544;42.196;24.336;2022-11-15T13:11:51;99338.94;;;14.63;62.68
26376;BME280;30544;42.196;24.336;2022-11-15T13:14:49;99341.94;;;14.56;63.66
26376;BME280;30544;42.196;24.336;2022-11-15T13:17:23;99331.06;;;14.55;63.71
26376;BME280;30544;42.196;24.336;2022-11-15T13:19:55;99337.50;;;14.60;62.87
26376;BME280;30544;42.196;24.336;2022-11-15T13:22:25;99330.59;;;14.73;62.75
26376;BME280;30544;42.196;24.336;2022-11-15T13:25:15;99333.94;;;14.70;62.34
26376;BME280;30544;42.196;24.336;2022-11-15T13:27:46;99338.28;;;14.46;62.81
26376;BME280;30544;42.196;24.336;2022-11-15T13:30:18;99333.66;;;14.66;62.76
26376;BME280;30544;42.196;24.336;2022-11-15T13:32:46;99331.13;;;14.65;63.00
26376;BME280;30544;42.196;24.336;2022-11-15T13:35:19;99323.53;;;14.60;62.85